createdAt,value
2018-08-11T00:00:28.902Z,79.17
2018-08-11T00:02:57.573Z,79.87
2018-08-11T00:05:26.175Z,80.68
2018-08-11T00:07:54.768Z,81.10
2018-08-11T00:10:23.362Z,80.34
2018-08-11T00:12:51.928Z,80.17
2018-08-11T00:15:21.219Z,81.06
2018-08-11T00:17:49.842Z,82.54
2018-08-11T00:20:33.082Z,83.82
2018-08-11T00:23:01.636Z,84.47
2018-08-11T00:25:30.505Z,85.16
2018-08-11T00:27:59.129Z,86.26
2018-08-11T00:30:58.010Z,86.65
2018-08-11T00:33:26.559Z,86.63
2018-08-11T00:35:55.059Z,87.60
2018-08-11T00:38:23.526Z,87.62
2018-08-11T00:40:52.013Z,87.88
2018-08-11T00:43:20.527Z,87.58
2018-08-11T00:45:49.101Z,87.92
2018-08-11T00:48:18.111Z,88.29
2018-08-11T00:50:46.690Z,88.14
2018-08-11T00:53:15.292Z,88.75
2018-08-11T00:55:43.868Z,88.59
2018-08-11T00:58:12.410Z,88.58
2018-08-11T01:00:40.882Z,88.95
2018-08-11T01:03:10.521Z,89.15
2018-08-11T01:05:52.089Z,89.33
2018-08-11T01:08:20.589Z,89.58
2018-08-11T01:10:49.062Z,89.93
2018-08-11T01:13:17.663Z,90.18
2018-08-11T01:15:46.257Z,90.83
2018-08-11T01:18:20.448Z,90.87
2018-08-11T01:20:53.784Z,91.09
2018-08-11T01:23:22.253Z,91.89
2018-08-11T01:25:50.801Z,92.36
2018-08-11T01:28:19.257Z,92.89
2018-08-11T01:30:47.819Z,92.90
2018-08-11T01:33:18.622Z,93.57
2018-08-11T01:35:47.174Z,94.29
2018-08-11T01:38:15.756Z,95.04
2018-08-11T01:40:44.249Z,95.97
2018-08-11T01:43:12.782Z,95.51
2018-08-11T01:45:41.334Z,95.40
2018-08-11T01:48:09.924Z,95.18
2018-08-11T01:50:38.498Z,94.67
2018-08-11T01:53:07.072Z,94.31
2018-08-11T01:55:35.563Z,93.66
2018-08-11T01:58:04.028Z,93.65
2018-08-11T02:00:32.513Z,93.52
2018-08-11T02:03:01.045Z,93.18
2018-08-11T02:05:29.622Z,92.80
2018-08-11T02:07:58.098Z,92.60
2018-08-11T02:10:26.648Z,93.11
2018-08-11T02:12:55.118Z,93.10
2018-08-11T02:15:23.635Z,93.29
2018-08-11T02:17:52.139Z,93.31
2018-08-11T02:20:20.678Z,93.06
2018-08-11T02:22:49.953Z,93.45
2018-08-11T02:25:18.452Z,93.42
2018-08-11T02:27:46.944Z,93.26
2018-08-11T02:30:17.426Z,94.00
2018-08-11T02:32:46.351Z,93.79
2018-08-11T02:35:15.243Z,94.03
2018-08-11T02:37:44.337Z,93.81
2018-08-11T02:40:15.426Z,93.59
2018-08-11T02:42:44.025Z,94.07
2018-08-11T02:45:14.333Z,94.14
2018-08-11T02:47:42.839Z,94.05
2018-08-11T02:50:13.309Z,93.91
2018-08-11T02:52:42.315Z,94.40
2018-08-11T02:55:11.008Z,94.51
2018-08-11T02:57:40.690Z,94.62
2018-08-11T03:00:10.921Z,94.67
2018-08-11T03:02:39.458Z,94.66
2018-08-11T03:05:07.974Z,94.55
2018-08-11T03:07:36.832Z,94.55
2018-08-11T03:10:06.539Z,94.14
2018-08-11T03:12:38.676Z,94.56
2018-08-11T03:15:08.446Z,94.48
2018-08-11T03:17:37.084Z,94.27
2018-08-11T03:20:08.215Z,94.52
2018-08-11T03:22:36.771Z,94.21
2018-08-11T03:25:06.716Z,94.42
2018-08-11T03:27:35.285Z,94.48
2018-08-11T03:30:04.213Z,94.67
2018-08-11T03:32:33.085Z,94.25
2018-08-11T03:35:01.553Z,94.78
2018-08-11T03:37:30.134Z,94.99
2018-08-11T03:39:58.609Z,94.76
2018-08-11T03:42:27.155Z,95.12
2018-08-11T03:44:55.625Z,94.83
2018-08-11T03:47:24.574Z,95.09
2018-08-11T03:49:53.157Z,95.35
2018-08-11T03:52:21.737Z,94.93
2018-08-11T03:54:50.219Z,95.17
2018-08-11T03:57:18.716Z,95.18
2018-08-11T03:59:47.293Z,95.10
2018-08-11T04:02:17.646Z,95.25
2018-08-11T04:04:46.169Z,95.29
2018-08-11T04:07:14.698Z,95.43
2018-08-11T04:09:43.169Z,95.58
2018-08-11T04:12:11.633Z,95.45
2018-08-11T04:14:40.865Z,95.72
2018-08-11T04:17:23.763Z,95.37
2018-08-11T04:19:52.200Z,95.80
2018-08-11T04:22:20.928Z,95.62
2018-08-11T04:24:49.412Z,95.86
2018-08-11T04:27:18.003Z,95.53
2018-08-11T04:29:46.477Z,95.69
2018-08-11T04:32:14.951Z,95.75
2018-08-11T04:34:43.465Z,95.43
2018-08-11T04:37:11.948Z,96.08
2018-08-11T04:39:40.596Z,95.58
2018-08-11T04:42:09.065Z,95.64
2018-08-11T04:44:37.606Z,95.61
2018-08-11T04:47:06.129Z,95.97
2018-08-11T04:49:34.639Z,95.58
2018-08-11T04:52:03.153Z,96.04
2018-08-11T04:54:31.732Z,95.56
2018-08-11T04:57:00.174Z,95.90
2018-08-11T04:59:28.774Z,95.57
2018-08-11T05:01:57.553Z,95.61
2018-08-11T05:04:26.028Z,95.74
2018-08-11T05:06:54.519Z,95.62
2018-08-11T05:09:23.218Z,95.38
2018-08-11T05:11:51.861Z,95.27
2018-08-11T05:16:47.008Z,94.82
2018-08-11T05:19:15.498Z,94.85
2018-08-11T05:21:43.939Z,94.86
2018-08-11T05:24:12.602Z,95.17
2018-08-11T05:26:41.199Z,94.50
2018-08-11T05:29:09.752Z,94.31
2018-08-11T05:31:38.203Z,94.52
2018-08-11T05:34:06.811Z,94.56
2018-08-11T05:36:35.409Z,94.40
2018-08-11T05:39:05.065Z,94.34
2018-08-11T05:41:33.599Z,94.05
2018-08-11T05:44:02.170Z,93.81
2018-08-11T05:46:30.743Z,93.42
2018-08-11T05:48:59.263Z,93.21
2018-08-11T05:51:27.807Z,93.17
2018-08-11T05:53:56.432Z,93.13
2018-08-11T05:56:24.934Z,93.01
2018-08-11T05:58:53.557Z,93.23
2018-08-11T06:01:22.056Z,92.53
2018-08-11T06:03:50.588Z,92.54
2018-08-11T06:06:19.122Z,92.67
2018-08-11T06:08:47.706Z,91.55
2018-08-11T06:11:16.259Z,91.71
2018-08-11T06:13:44.701Z,91.54
2018-08-11T06:16:13.377Z,91.73
2018-08-11T06:18:41.936Z,90.55
2018-08-11T06:21:10.479Z,91.11
2018-08-11T06:23:39.106Z,90.74
2018-08-11T06:26:08.022Z,90.61
2018-08-11T06:28:36.661Z,90.31
2018-08-11T06:31:05.325Z,89.98
2018-08-11T06:33:33.849Z,89.78
2018-08-11T06:36:02.355Z,89.21
2018-08-11T06:38:30.833Z,88.99
2018-08-11T06:40:59.566Z,88.52
2018-08-11T06:43:27.854Z,88.68
2018-08-11T06:45:56.396Z,87.61
2018-08-11T06:48:24.882Z,87.68
2018-08-11T06:50:55.112Z,86.97
2018-08-11T06:53:23.613Z,86.32
2018-08-11T06:55:52.062Z,85.64
2018-08-11T06:58:20.677Z,85.91
2018-08-11T07:00:49.193Z,85.24
2018-08-11T07:03:17.665Z,84.18
2018-08-11T07:05:46.174Z,84.42
2018-08-11T07:08:14.866Z,83.83
2018-08-11T07:10:43.534Z,83.22
2018-08-11T07:13:12.024Z,83.21
2018-08-11T07:15:40.589Z,82.43
2018-08-11T07:18:09.105Z,81.59
2018-08-11T07:20:37.681Z,81.39
2018-08-11T07:23:06.320Z,81.33
2018-08-11T07:25:34.968Z,81.62
2018-08-11T07:28:03.564Z,80.61
2018-08-11T07:30:32.210Z,80.13
2018-08-11T07:33:00.846Z,79.47
2018-08-11T07:35:29.402Z,78.89
2018-08-11T07:37:57.973Z,78.43
2018-08-11T07:40:26.546Z,78.64
2018-08-11T07:42:55.128Z,78.11
2018-08-11T07:45:23.712Z,77.04
2018-08-11T07:47:52.296Z,77.05
2018-08-11T07:50:20.908Z,77.07
2018-08-11T07:52:49.361Z,75.56
2018-08-11T07:55:18.048Z,75.22
2018-08-11T07:57:46.648Z,75.30
2018-08-11T08:00:15.247Z,75.42
2018-08-11T08:02:43.973Z,74.42
2018-08-11T08:05:12.633Z,74.37
2018-08-11T08:07:41.291Z,73.20
2018-08-11T08:10:09.820Z,72.80
2018-08-11T08:12:38.467Z,72.11
2018-08-11T08:15:07.424Z,71.92
2018-08-11T08:17:35.960Z,72.97
2018-08-11T08:20:05.174Z,72.30
2018-08-11T08:22:33.752Z,71.64
2018-08-11T08:25:02.295Z,71.01
2018-08-11T08:27:30.764Z,70.40
2018-08-11T08:29:59.389Z,69.56
2018-08-11T08:32:27.953Z,68.68
2018-08-11T08:34:56.522Z,67.94
2018-08-11T08:37:25.116Z,67.55
2018-08-11T08:39:53.814Z,66.01
2018-08-11T08:42:22.422Z,66.05
2018-08-11T08:44:51.060Z,65.13
2018-08-11T08:47:19.511Z,64.83
2018-08-11T08:49:48.068Z,64.95
2018-08-11T08:52:17.012Z,64.17
2018-08-11T08:54:46.116Z,64.33
2018-08-11T08:57:14.943Z,64.34
2018-08-11T08:59:43.697Z,64.09
2018-08-11T09:02:12.158Z,64.71
2018-08-11T09:04:40.811Z,63.35
2018-08-11T09:07:09.291Z,62.75
2018-08-11T09:09:37.937Z,61.53
2018-08-11T09:12:06.805Z,60.91
2018-08-11T09:14:35.240Z,62.41
2018-08-11T09:17:03.691Z,61.41
2018-08-11T09:19:32.308Z,60.32
2018-08-11T09:22:00.856Z,60.01
2018-08-11T09:24:29.425Z,58.59
2018-08-11T09:26:57.909Z,56.28
2018-08-11T09:29:26.393Z,57.19
2018-08-11T09:31:54.994Z,58.46
2018-08-11T09:34:23.599Z,59.64
2018-08-11T09:37:40.154Z,58.92
2018-08-11T09:40:08.785Z,58.56
2018-08-11T09:42:37.347Z,59.00
2018-08-11T09:45:06.262Z,57.37
2018-08-11T09:47:34.800Z,56.94
2018-08-11T09:50:03.357Z,56.92
2018-08-11T09:52:31.818Z,55.05
2018-08-11T09:55:00.566Z,54.58
2018-08-11T09:57:29.161Z,54.70
2018-08-11T09:59:57.666Z,53.71
2018-08-11T10:02:26.341Z,53.68
2018-08-11T10:04:54.816Z,54.50
2018-08-11T10:07:23.380Z,53.01
2018-08-11T10:09:51.863Z,51.55
2018-08-11T10:12:20.365Z,52.14
2018-08-11T10:14:49.001Z,52.71
2018-08-11T10:17:17.503Z,53.91
2018-08-11T10:19:46.113Z,53.25
2018-08-11T10:22:14.788Z,51.64
2018-08-11T10:24:43.268Z,50.70
2018-08-11T10:27:11.864Z,52.09
2018-08-11T10:29:40.433Z,51.24
2018-08-11T10:32:08.965Z,50.31
2018-08-11T10:34:37.499Z,50.39
2018-08-11T10:37:06.069Z,48.76
2018-08-11T10:39:34.572Z,46.83
2018-08-11T10:42:03.059Z,47.75
2018-08-11T10:44:31.639Z,46.60
2018-08-11T10:47:00.114Z,46.29
2018-08-11T10:49:28.690Z,47.22
2018-08-11T10:51:57.243Z,48.57
2018-08-11T10:54:25.859Z,48.86
2018-08-11T10:56:54.477Z,46.87
2018-08-11T10:59:22.921Z,46.06
2018-08-11T11:01:51.519Z,44.66
2018-08-11T11:04:20.229Z,44.90
2018-08-11T11:06:48.813Z,45.37
2018-08-11T11:09:17.358Z,45.96
2018-08-11T11:12:14.445Z,46.22
2018-08-11T11:14:43.000Z,44.96
2018-08-11T11:17:11.460Z,45.70
2018-08-11T11:19:39.931Z,46.63
2018-08-11T11:22:08.458Z,46.38
2018-08-11T11:24:36.928Z,46.10
2018-08-11T11:27:05.665Z,46.67
2018-08-11T11:29:34.404Z,46.16
2018-08-11T11:32:02.928Z,46.70
2018-08-11T11:34:31.507Z,46.47
2018-08-11T11:37:00.078Z,46.24
2018-08-11T11:39:28.654Z,45.62
2018-08-11T11:41:57.282Z,44.54
2018-08-11T11:44:26.021Z,45.21
2018-08-11T11:46:54.585Z,43.40
2018-08-11T11:49:23.112Z,43.39
2018-08-11T11:51:51.572Z,43.98
2018-08-11T11:54:20.068Z,43.36
2018-08-11T11:56:48.648Z,43.61
2018-08-11T11:59:17.217Z,42.98
2018-08-11T12:01:45.783Z,42.61
2018-08-11T12:04:14.349Z,42.69
2018-08-11T12:06:42.852Z,44.20
2018-08-11T12:09:11.862Z,42.60
2018-08-11T12:11:40.657Z,41.14
2018-08-11T12:14:09.425Z,39.89
2018-08-11T12:16:38.124Z,40.22
2018-08-11T12:19:06.838Z,41.06
2018-08-11T12:21:35.501Z,41.57
2018-08-11T12:24:04.036Z,42.39
2018-08-11T12:26:32.512Z,42.73
2018-08-11T12:29:01.004Z,43.16
2018-08-11T12:31:29.533Z,42.52
2018-08-11T12:33:57.999Z,41.92
2018-08-11T12:36:26.651Z,41.89
2018-08-11T12:38:55.369Z,40.90
2018-08-11T12:41:24.128Z,40.93
2018-08-11T12:43:52.750Z,39.11
2018-08-11T12:46:21.326Z,37.13
2018-08-11T12:48:49.814Z,36.25
2018-08-11T12:51:18.384Z,36.76
2018-08-11T12:53:46.906Z,36.55
2018-08-11T12:56:15.868Z,35.79
2018-08-11T12:58:44.329Z,36.00
2018-08-11T13:01:13.080Z,35.50
2018-08-11T13:03:41.630Z,34.46
2018-08-11T13:06:10.310Z,33.91
2018-08-11T13:08:38.818Z,34.67
2018-08-11T13:11:07.467Z,34.26
2018-08-11T13:13:36.169Z,35.63
2018-08-11T13:16:04.768Z,37.76
2018-08-11T13:18:33.377Z,38.39
2018-08-11T13:21:02.227Z,36.71
2018-08-11T13:23:30.963Z,34.76
2018-08-11T13:25:59.553Z,34.11
2018-08-11T13:28:28.063Z,32.56
2018-08-11T13:30:56.671Z,32.07
2018-08-11T13:33:25.671Z,31.83
2018-08-11T13:35:54.344Z,32.49
2018-08-11T13:38:22.929Z,32.08
2018-08-11T13:40:51.504Z,32.31
2018-08-11T13:43:20.082Z,32.48
2018-08-11T13:45:48.681Z,32.43
2018-08-11T13:48:17.499Z,34.04
2018-08-11T13:50:46.383Z,35.22
2018-08-11T13:53:22.324Z,35.93
2018-08-11T13:55:50.888Z,36.30
2018-08-11T13:58:20.040Z,36.69
2018-08-11T14:00:48.787Z,37.11
2018-08-11T14:03:45.343Z,37.24
2018-08-11T14:06:14.133Z,36.05
2018-08-11T14:08:42.678Z,34.70
2018-08-11T14:11:11.576Z,33.73
2018-08-11T14:13:40.321Z,33.58
2018-08-11T14:16:08.998Z,34.97
2018-08-11T14:18:37.638Z,35.60
2018-08-11T14:21:06.513Z,34.47
2018-08-11T14:23:35.004Z,34.72
2018-08-11T14:26:03.971Z,35.05
2018-08-11T14:29:00.366Z,34.73
2018-08-11T14:31:29.340Z,35.40
2018-08-11T14:33:58.223Z,35.71
2018-08-11T14:36:28.884Z,34.75
2018-08-11T14:38:57.847Z,33.88
2018-08-11T14:41:27.400Z,34.52
2018-08-11T14:43:56.174Z,34.71
2018-08-11T14:46:24.740Z,34.45
2018-08-11T14:48:53.546Z,33.79
2018-08-11T14:51:22.238Z,34.56
2018-08-11T14:53:50.891Z,34.35
2018-08-11T14:56:19.564Z,33.63
2018-08-11T14:58:48.059Z,34.78
2018-08-11T15:01:16.634Z,33.31
2018-08-11T15:03:45.539Z,33.11
2018-08-11T15:06:14.084Z,32.79
2018-08-11T15:08:42.834Z,33.27
2018-08-11T15:11:11.620Z,33.06
2018-08-11T15:13:40.398Z,33.55
2018-08-11T15:16:09.020Z,33.17
2018-08-11T15:18:37.957Z,33.58
2018-08-11T15:21:06.584Z,32.92
2018-08-11T15:23:36.745Z,32.84
2018-08-11T15:26:05.346Z,33.02
2018-08-11T15:28:33.888Z,33.23
2018-08-11T15:31:02.553Z,34.16
2018-08-11T15:33:31.188Z,33.75
2018-08-11T15:35:59.776Z,33.11
2018-08-11T15:38:28.427Z,33.06
2018-08-11T15:40:57.245Z,32.94
2018-08-11T15:43:25.963Z,32.75
2018-08-11T15:45:54.527Z,32.75
2018-08-11T15:48:23.354Z,32.99
2018-08-11T15:50:51.872Z,34.26
2018-08-11T15:53:20.376Z,34.18
2018-08-11T15:55:48.862Z,34.70
2018-08-11T15:58:17.450Z,34.68
2018-08-11T16:00:46.210Z,35.03
2018-08-11T16:03:15.069Z,35.22
2018-08-11T16:05:43.680Z,35.17
2018-08-11T16:08:12.283Z,34.80
2018-08-11T16:10:41.089Z,35.33
2018-08-11T16:13:09.931Z,34.60
2018-08-11T16:15:38.600Z,33.82
2018-08-11T16:18:07.141Z,34.08
2018-08-11T16:20:35.900Z,34.47
2018-08-11T16:23:05.372Z,34.04
2018-08-11T16:25:33.914Z,33.41
2018-08-11T16:28:02.702Z,33.45
2018-08-11T16:30:31.701Z,34.12
2018-08-11T16:33:01.586Z,34.25
2018-08-11T16:35:30.117Z,34.07
2018-08-11T16:37:58.922Z,34.96
2018-08-11T16:40:28.107Z,34.43
2018-08-11T16:42:57.132Z,34.99
2018-08-11T16:45:26.336Z,35.02
2018-08-11T16:47:55.839Z,35.42
2018-08-11T16:50:24.673Z,34.85
2018-08-11T16:52:53.109Z,35.02
2018-08-11T16:55:22.070Z,35.00
2018-08-11T16:57:50.744Z,35.75
2018-08-11T17:00:21.064Z,35.85
2018-08-11T17:02:49.692Z,35.42
2018-08-11T17:05:18.528Z,35.89
2018-08-11T17:07:47.115Z,36.00
2018-08-11T17:10:15.932Z,35.69
2018-08-11T17:12:45.078Z,35.38
2018-08-11T17:15:15.303Z,36.31
2018-08-11T17:17:44.090Z,36.21
2018-08-11T17:20:12.589Z,36.61
2018-08-11T17:22:41.345Z,36.50
2018-08-11T17:25:10.763Z,37.71
2018-08-11T17:27:39.200Z,37.32
2018-08-11T17:30:14.975Z,37.39
2018-08-11T17:32:43.877Z,37.55
2018-08-11T17:35:13.101Z,37.73
2018-08-11T17:37:42.644Z,37.76
2018-08-11T17:40:11.107Z,37.33
2018-08-11T17:42:39.670Z,37.78
2018-08-11T17:45:08.253Z,37.79
2018-08-11T17:47:36.756Z,38.31
2018-08-11T17:50:10.780Z,38.11
2018-08-11T17:52:39.726Z,38.00
2018-08-11T17:55:09.736Z,38.89
2018-08-11T17:57:38.634Z,38.87
2018-08-11T18:00:07.704Z,38.91
2018-08-11T18:02:37.256Z,39.08
2018-08-11T18:05:06.284Z,39.55
2018-08-11T18:07:35.128Z,39.44
2018-08-11T18:10:03.757Z,39.81
2018-08-11T18:12:33.781Z,41.23
2018-08-11T18:15:02.868Z,42.82
2018-08-11T18:17:31.640Z,43.31
2018-08-11T18:20:36.032Z,44.57
2018-08-11T18:23:05.479Z,43.90
2018-08-11T18:25:34.051Z,43.59
2018-08-11T18:28:03.011Z,45.53
2018-08-11T18:30:32.029Z,45.85
2018-08-11T18:33:00.859Z,47.48
2018-08-11T18:35:29.875Z,49.54
2018-08-11T18:37:58.784Z,48.75
2018-08-11T18:40:32.259Z,50.26
2018-08-11T18:43:00.768Z,51.25
2018-08-11T18:45:29.272Z,52.49
2018-08-11T18:47:57.840Z,52.44
2018-08-11T18:50:26.784Z,53.98
2018-08-11T18:53:10.665Z,54.05
2018-08-11T18:55:39.806Z,53.69
2018-08-11T18:58:08.281Z,53.46
2018-08-11T19:00:37.239Z,54.06
2018-08-11T19:03:05.937Z,54.24
2018-08-11T19:05:34.530Z,54.56
2018-08-11T19:08:03.968Z,56.21
2018-08-11T19:10:33.161Z,56.79
2018-08-11T19:13:01.724Z,57.35
2018-08-11T19:15:30.193Z,58.81
2018-08-11T19:17:58.881Z,59.18
2018-08-11T19:20:27.581Z,58.87
2018-08-11T19:22:56.757Z,59.82
2018-08-11T19:25:25.956Z,59.82
2018-08-11T19:27:55.121Z,60.20
2018-08-11T19:30:23.776Z,60.80
2018-08-11T19:32:52.772Z,61.29
2018-08-11T19:35:21.274Z,61.69
2018-08-11T19:37:50.718Z,61.95
2018-08-11T19:40:36.970Z,62.27
2018-08-11T19:43:06.068Z,63.20
2018-08-11T19:45:34.962Z,63.81
2018-08-11T19:48:04.147Z,64.07
2018-08-11T19:50:32.992Z,63.94
2018-08-11T19:53:01.577Z,64.32
2018-08-11T19:55:30.541Z,65.25
2018-08-11T19:57:59.477Z,65.42
2018-08-11T20:00:28.815Z,65.66
2018-08-11T20:02:57.371Z,66.78
2018-08-11T20:05:26.246Z,67.98
2018-08-11T20:07:55.396Z,68.02
2018-08-11T20:10:24.811Z,67.77
2018-08-11T20:12:53.626Z,67.87
2018-08-11T20:15:22.121Z,68.96
2018-08-11T20:17:51.363Z,70.12
2018-08-11T20:20:20.341Z,70.56
2018-08-11T20:22:49.495Z,71.07
2018-08-11T20:25:18.072Z,71.78
2018-08-11T20:27:46.704Z,72.13
2018-08-11T20:30:15.632Z,71.55
2018-08-11T20:32:44.231Z,72.41
2018-08-11T20:35:12.800Z,72.59
2018-08-11T20:37:42.130Z,72.49
2018-08-11T20:40:10.755Z,72.43
2018-08-11T20:42:39.410Z,72.67
2018-08-11T20:45:09.164Z,73.20
2018-08-11T20:47:37.953Z,73.98
2018-08-11T20:50:07.255Z,74.05
2018-08-11T20:52:35.805Z,74.36
2018-08-11T20:55:05.041Z,74.76
2018-08-11T20:57:33.619Z,75.10
2018-08-11T21:00:02.221Z,75.54
2018-08-11T21:02:30.748Z,75.79
2018-08-11T21:04:59.362Z,76.65
2018-08-11T21:07:27.912Z,76.74
2018-08-11T21:09:56.517Z,77.15
2018-08-11T21:12:25.133Z,77.12
2018-08-11T21:14:53.908Z,77.23
2018-08-11T21:17:22.481Z,77.07
2018-08-11T21:20:14.951Z,77.02
2018-08-11T21:22:43.514Z,77.42
2018-08-11T21:25:12.522Z,77.99
2018-08-11T21:27:41.081Z,77.87
2018-08-11T21:30:12.013Z,78.18
2018-08-11T21:32:40.835Z,78.10
2018-08-11T21:35:09.832Z,78.28
2018-08-11T21:37:38.423Z,78.50
2018-08-11T21:40:13.008Z,78.77
2018-08-11T21:42:41.939Z,78.81
2018-08-11T21:45:39.073Z,78.40
2018-08-11T21:48:07.657Z,78.86
2018-08-11T21:50:36.189Z,79.10
2018-08-11T21:53:04.804Z,78.83
2018-08-11T21:55:33.538Z,79.20
2018-08-11T21:58:02.104Z,79.35
2018-08-11T22:00:33.852Z,79.21
2018-08-11T22:03:03.596Z,79.01
2018-08-11T22:05:32.254Z,79.26
2018-08-11T22:08:01.726Z,79.49
2018-08-11T22:10:30.626Z,79.68
2018-08-11T22:12:59.395Z,79.75
2018-08-11T22:15:28.285Z,80.17
2018-08-11T22:17:56.909Z,80.16
2018-08-11T22:20:25.509Z,80.06
2018-08-11T22:23:30.144Z,80.10
2018-08-11T22:25:58.678Z,80.35
2018-08-11T22:28:27.203Z,80.01
2018-08-11T22:31:03.907Z,80.49
2018-08-11T22:33:32.564Z,80.97
2018-08-11T22:36:01.162Z,80.99
2018-08-11T22:38:29.711Z,80.96
2018-08-11T22:40:58.285Z,80.24
2018-08-11T22:43:26.897Z,80.25
2018-08-11T22:45:55.491Z,80.75
2018-08-11T22:48:24.075Z,80.47
2018-08-11T22:50:52.652Z,81.14
2018-08-11T22:53:21.250Z,81.28
2018-08-11T22:55:49.769Z,80.82
2018-08-11T22:58:18.509Z,81.16
2018-08-11T23:00:47.093Z,81.87
2018-08-11T23:03:15.629Z,81.98
2018-08-11T23:05:44.159Z,81.55
2018-08-11T23:08:12.708Z,82.24
2018-08-11T23:10:41.312Z,82.04
2018-08-11T23:13:09.872Z,81.14
2018-08-11T23:15:38.577Z,80.52
2018-08-11T23:18:07.164Z,80.59
2018-08-11T23:20:35.689Z,80.38
2018-08-11T23:23:04.321Z,80.33
2018-08-11T23:25:32.913Z,80.97
2018-08-11T23:28:01.502Z,81.23
2018-08-11T23:30:29.953Z,81.67
2018-08-11T23:32:58.570Z,81.87
2018-08-11T23:35:27.068Z,82.27
2018-08-11T23:37:56.879Z,81.65
2018-08-11T23:40:25.430Z,81.75
2018-08-11T23:42:54.072Z,81.35
2018-08-11T23:45:22.605Z,81.39
2018-08-11T23:47:51.195Z,80.99
2018-08-11T23:50:19.772Z,80.82
2018-08-11T23:52:48.549Z,81.23
2018-08-11T23:55:17.054Z,81.00
2018-08-11T23:57:45.646Z,80.36
